New Canada, Maine
Current Conditions -  °F | °C
As of 11:53 AM on Saturday 25 Oct 2014 (Local Time) from KFVE Reporting Station
Light Rain Light Rain  
Wind Chill: 42°   Ceiling: 1900
Heat Index: 42°   Visibility: 10mi
Dew Point: 35°   Wind: 0mph
Humidity: 76%   Direction: NA
Pressure: 29.59"   Gusts: NA
Location:  47.0224°N, 68.6923°W
Report Text: KFVE 251553Z AUTO 00000KT 10SM -RA BKN019 OVC055 06/02 A2959 RMK AO2 RAB05 SLP025 P0000 T00560017
Loading
Personal Weather Stations






























Interactive Weather Map
Tropical Storm Tracking
New forecast layout! Learn more

10-Day Weather Forecast

Advertisements
Track Severe Weather on mobile